createdAt,value
2022-08-07T00:02:40.416Z,17.00
2022-08-07T00:05:05.751Z,17.00
2022-08-07T00:07:40.869Z,16.90
2022-08-07T00:10:27.256Z,16.80
2022-08-07T00:13:09.661Z,16.80
2022-08-07T00:15:53.016Z,16.80
2022-08-07T00:18:27.989Z,16.80
2022-08-07T00:21:03.318Z,16.70
2022-08-07T00:23:41.867Z,16.70
2022-08-07T00:26:31.180Z,16.70
2022-08-07T00:29:01.956Z,16.60
2022-08-07T00:31:38.045Z,16.50
2022-08-07T00:34:11.137Z,16.50
2022-08-07T00:36:43.012Z,16.40
2022-08-07T00:39:16.593Z,16.30
2022-08-07T00:41:53.458Z,16.30
2022-08-07T00:44:29.794Z,16.20
2022-08-07T00:46:59.647Z,16.20
2022-08-07T00:50:17.167Z,16.20
2022-08-07T00:52:20.159Z,16.20
2022-08-07T00:54:53.722Z,16.20
2022-08-07T00:57:25.289Z,16.10
2022-08-07T00:59:55.324Z,16.00
2022-08-07T01:02:28.609Z,16.00
2022-08-07T01:05:00.076Z,16.00
2022-08-07T01:07:31.101Z,16.00
2022-08-07T01:10:06.897Z,16.00
2022-08-07T01:12:53.307Z,15.80
2022-08-07T01:16:01.320Z,15.80
2022-08-07T01:18:17.129Z,15.80
2022-08-07T01:20:59.713Z,15.70
2022-08-07T01:23:38.841Z,15.60
2022-08-07T01:26:15.822Z,15.50
2022-08-07T01:28:50.635Z,15.50
2022-08-07T01:31:41.674Z,15.50
2022-08-07T01:34:15.142Z,15.50
2022-08-07T01:36:45.659Z,15.50
2022-08-07T01:39:41.008Z,15.40
2022-08-07T01:42:57.422Z,15.40
2022-08-07T01:45:36.284Z,15.40
2022-08-07T01:48:18.253Z,15.30
2022-08-07T01:50:59.966Z,15.20
2022-08-07T01:54:12.172Z,15.30
2022-08-07T01:56:54.326Z,15.20
2022-08-07T01:59:31.561Z,15.10
2022-08-07T02:02:10.592Z,15.00
2022-08-07T02:04:56.335Z,15.00
2022-08-07T02:07:50.007Z,15.00
2022-08-07T02:10:28.067Z,14.90
2022-08-07T02:13:02.895Z,14.90
2022-08-07T02:15:44.229Z,14.90
2022-08-07T02:18:15.157Z,14.90
2022-08-07T02:20:52.057Z,14.80
2022-08-07T02:23:29.672Z,14.70
2022-08-07T02:26:31.509Z,14.70
2022-08-07T02:29:00.022Z,14.80
2022-08-07T02:31:32.739Z,14.70
2022-08-07T02:34:11.146Z,14.70
2022-08-07T02:36:47.850Z,14.70
2022-08-07T02:39:43.754Z,14.70
2022-08-07T02:42:16.370Z,14.60
2022-08-07T02:44:54.150Z,14.60
2022-08-07T02:47:27.876Z,14.60
2022-08-07T02:50:11.638Z,14.50
2022-08-07T02:52:49.009Z,14.50
2022-08-07T02:55:28.454Z,14.40
2022-08-07T02:58:21.494Z,14.40
2022-08-07T03:00:57.528Z,14.30
2022-08-07T03:03:49.930Z,14.10
2022-08-07T03:06:33.103Z,14.20
2022-08-07T03:09:07.557Z,14.10
2022-08-07T03:11:51.655Z,14.20
2022-08-07T03:14:23.886Z,14.20
2022-08-07T03:16:55.800Z,14.10
2022-08-07T03:19:29.080Z,14.10
2022-08-07T03:22:18.980Z,14.10
2022-08-07T03:24:49.813Z,14.10
2022-08-07T03:27:30.540Z,14.00
2022-08-07T03:30:03.735Z,14.00
2022-08-07T03:32:58.925Z,13.90
2022-08-07T03:35:44.045Z,13.80
2022-08-07T03:38:29.380Z,13.90
2022-08-07T03:41:02.173Z,13.90
2022-08-07T03:43:36.051Z,13.90
2022-08-07T03:46:18.300Z,13.80
2022-08-07T03:49:02.663Z,13.80
2022-08-07T03:51:47.146Z,13.80
2022-08-07T03:54:36.042Z,13.70
2022-08-07T03:58:34.862Z,13.80
2022-08-07T04:00:04.212Z,13.70
2022-08-07T04:02:49.309Z,13.70
2022-08-07T04:05:40.526Z,13.70
2022-08-07T04:08:22.086Z,13.70
2022-08-07T04:12:25.002Z,13.70
2022-08-07T04:14:10.407Z,13.60
2022-08-07T04:16:40.434Z,13.70
2022-08-07T04:19:34.123Z,13.60
2022-08-07T04:22:27.437Z,13.60
2022-08-07T04:25:01.976Z,13.50
2022-08-07T04:27:44.052Z,13.50
2022-08-07T04:30:21.500Z,13.50
2022-08-07T04:33:20.994Z,13.50
2022-08-07T04:35:54.794Z,13.50
2022-08-07T04:38:29.821Z,13.40
2022-08-07T04:41:01.689Z,13.40
2022-08-07T04:44:12.192Z,13.40
2022-08-07T04:47:23.463Z,13.40
2022-08-07T04:50:13.618Z,13.40
2022-08-07T04:53:16.617Z,13.30
2022-08-07T04:58:09.597Z,13.30
2022-08-07T05:00:10.859Z,13.40
2022-08-07T05:02:16.985Z,13.30
2022-08-07T05:05:12.018Z,13.30
2022-08-07T05:08:04.246Z,13.20
2022-08-07T05:10:43.091Z,13.30
2022-08-07T05:14:55.448Z,13.30
2022-08-07T05:16:20.262Z,13.20
2022-08-07T05:18:56.223Z,13.30
2022-08-07T05:22:00.767Z,13.30
2022-08-07T05:24:24.664Z,13.30
2022-08-07T05:27:02.989Z,13.30
2022-08-07T05:29:51.142Z,13.30
2022-08-07T05:32:26.651Z,13.30
2022-08-07T05:34:58.410Z,13.30
2022-08-07T05:37:28.529Z,13.40
2022-08-07T05:40:18.743Z,13.40
2022-08-07T05:42:55.916Z,13.40
2022-08-07T05:45:46.764Z,13.40
2022-08-07T05:48:26.500Z,13.40
2022-08-07T05:50:59.729Z,13.50
2022-08-07T05:54:13.571Z,13.50
2022-08-07T05:56:29.906Z,13.60
2022-08-07T05:59:03.539Z,13.60
2022-08-07T06:01:40.371Z,13.70
2022-08-07T06:04:11.447Z,13.70
2022-08-07T06:06:47.770Z,13.80
2022-08-07T06:10:04.400Z,13.80
2022-08-07T06:12:16.860Z,13.90
2022-08-07T06:14:51.342Z,13.90
2022-08-07T06:17:23.471Z,14.00
2022-08-07T06:20:04.744Z,14.10
2022-08-07T06:22:40.248Z,14.10
2022-08-07T06:25:23.889Z,14.10
2022-08-07T06:28:04.879Z,14.20
2022-08-07T06:30:36.003Z,14.30
2022-08-07T06:33:17.867Z,14.30
2022-08-07T06:36:13.533Z,14.40
2022-08-07T06:38:59.352Z,14.40
2022-08-07T06:42:02.567Z,14.50
2022-08-07T06:44:50.946Z,14.60
2022-08-07T06:47:21.352Z,14.80
2022-08-07T06:49:58.572Z,14.80
2022-08-07T06:52:39.094Z,14.90
2022-08-07T06:55:33.159Z,15.00
2022-08-07T06:58:13.607Z,15.00
2022-08-07T07:00:58.730Z,15.20
2022-08-07T07:03:47.978Z,15.30
2022-08-07T07:06:23.969Z,15.30
2022-08-07T07:08:56.852Z,15.40
2022-08-07T07:12:10.750Z,15.50
2022-08-07T07:14:22.055Z,15.60
2022-08-07T07:16:56.535Z,15.60
2022-08-07T07:19:57.688Z,15.80
2022-08-07T07:22:36.622Z,16.00
2022-08-07T07:26:35.115Z,16.00
2022-08-07T07:28:29.960Z,16.00
2022-08-07T07:31:13.546Z,16.20
2022-08-07T07:33:56.432Z,16.30
2022-08-07T07:36:32.266Z,16.40
2022-08-07T07:39:06.436Z,16.60
2022-08-07T07:42:02.316Z,16.90
2022-08-07T07:44:31.615Z,16.90
2022-08-07T07:47:13.994Z,17.00
2022-08-07T07:50:35.670Z,16.90
2022-08-07T07:52:47.165Z,17.00
2022-08-07T07:55:21.405Z,17.20
2022-08-07T07:57:58.151Z,17.20
2022-08-07T08:00:31.489Z,17.30
2022-08-07T08:03:09.402Z,17.50
2022-08-07T08:05:55.156Z,17.70
2022-08-07T08:08:35.448Z,17.70
2022-08-07T08:11:16.569Z,17.60
2022-08-07T08:13:54.052Z,17.70
2022-08-07T08:16:33.022Z,17.90
2022-08-07T08:19:18.230Z,18.10
2022-08-07T08:22:17.964Z,18.20
2022-08-07T08:25:24.570Z,18.50
2022-08-07T08:28:07.494Z,18.60
2022-08-07T08:30:42.872Z,18.70
2022-08-07T08:33:25.022Z,18.70
2022-08-07T08:36:00.695Z,18.80
2022-08-07T08:38:40.596Z,18.90
2022-08-07T08:41:26.379Z,18.80
2022-08-07T08:44:29.475Z,19.10
2022-08-07T08:47:11.389Z,19.00
2022-08-07T08:50:04.678Z,19.20
2022-08-07T08:52:53.597Z,19.10
2022-08-07T08:55:54.482Z,19.30
2022-08-07T08:58:36.359Z,19.50
2022-08-07T09:01:18.602Z,19.70
2022-08-07T09:04:08.537Z,19.70
2022-08-07T09:06:56.938Z,19.80
2022-08-07T09:09:56.784Z,20.00
2022-08-07T09:12:53.185Z,20.00
2022-08-07T09:16:25.381Z,20.20
2022-08-07T09:18:58.542Z,20.20
2022-08-07T09:22:10.319Z,20.20
2022-08-07T09:25:01.539Z,20.40
2022-08-07T09:28:00.807Z,20.60
2022-08-07T09:30:54.367Z,20.90
2022-08-07T09:34:00.944Z,21.00
2022-08-07T09:36:42.996Z,21.00
2022-08-07T09:39:55.124Z,21.30
2022-08-07T09:42:51.476Z,21.30
2022-08-07T09:47:24.305Z,21.50
2022-08-07T09:48:55.960Z,21.90
2022-08-07T09:52:10.906Z,22.10
2022-08-07T09:54:48.073Z,22.50
2022-08-07T09:57:51.349Z,22.60
2022-08-07T10:00:31.852Z,22.70
2022-08-07T10:04:06.152Z,22.70
2022-08-07T10:06:59.788Z,23.00
2022-08-07T10:10:03.870Z,23.10
2022-08-07T10:13:15.944Z,23.20
2022-08-07T10:16:23.211Z,23.40
2022-08-07T10:19:45.499Z,23.50
2022-08-07T10:22:39.494Z,23.10
2022-08-07T10:25:42.970Z,22.70
2022-08-07T10:28:32.179Z,22.80
2022-08-07T10:31:39.458Z,23.20
2022-08-07T10:34:37.796Z,23.50
2022-08-07T10:38:00.316Z,23.10
2022-08-07T10:40:35.916Z,22.80
2022-08-07T10:43:19.323Z,22.90
2022-08-07T10:46:02.865Z,23.30
2022-08-07T10:48:48.661Z,23.70
2022-08-07T10:51:57.525Z,23.70
2022-08-07T10:54:38.397Z,24.00
2022-08-07T10:57:34.747Z,24.10
2022-08-07T11:00:39.330Z,23.80
2022-08-07T11:03:12.882Z,23.90
2022-08-07T11:05:54.813Z,24.00
2022-08-07T11:08:41.235Z,24.10
2022-08-07T11:11:20.278Z,23.90
2022-08-07T11:14:45.668Z,23.50
2022-08-07T11:16:59.413Z,24.00
2022-08-07T11:19:52.191Z,24.30
2022-08-07T11:22:44.124Z,24.50
2022-08-07T11:25:26.926Z,24.70
2022-08-07T11:28:15.566Z,24.90
2022-08-07T11:30:58.519Z,25.00
2022-08-07T11:33:58.399Z,25.10
2022-08-07T11:36:56.453Z,25.20
2022-08-07T11:39:59.843Z,25.20
2022-08-07T11:42:48.806Z,25.30
2022-08-07T11:45:35.303Z,25.30
2022-08-07T11:49:04.139Z,25.40
2022-08-07T11:52:00.356Z,25.60
2022-08-07T11:55:01.263Z,25.50
2022-08-07T11:57:57.717Z,25.70
2022-08-07T12:01:00.145Z,25.70
2022-08-07T12:04:03.965Z,26.00
2022-08-07T12:07:00.342Z,26.20
2022-08-07T12:09:38.016Z,26.30
2022-08-07T12:12:12.191Z,26.20
2022-08-07T12:14:55.701Z,26.40
2022-08-07T12:17:41.362Z,26.50
2022-08-07T12:20:36.643Z,26.60
2022-08-07T12:24:07.483Z,26.60
2022-08-07T12:26:49.093Z,26.40
2022-08-07T12:29:38.951Z,26.70
2022-08-07T12:32:24.579Z,26.80
2022-08-07T12:34:56.060Z,26.90
2022-08-07T12:38:09.623Z,26.90
2022-08-07T12:40:46.818Z,27.10
2022-08-07T12:44:01.890Z,27.20
2022-08-07T12:46:32.819Z,27.30
2022-08-07T12:49:25.462Z,27.20
2022-08-07T12:52:19.253Z,26.90
2022-08-07T12:55:05.293Z,27.00
2022-08-07T12:58:01.464Z,27.10
2022-08-07T13:00:50.907Z,27.30
2022-08-07T13:04:05.034Z,27.30
2022-08-07T13:07:02.248Z,27.40
2022-08-07T13:10:20.904Z,27.40
2022-08-07T13:13:47.595Z,27.80
2022-08-07T13:16:18.714Z,27.90
2022-08-07T13:19:02.931Z,27.90
2022-08-07T13:21:57.294Z,28.20
2022-08-07T13:24:43.840Z,28.30
2022-08-07T13:28:05.767Z,28.20
2022-08-07T13:30:40.981Z,28.50
2022-08-07T13:34:30.240Z,28.90
2022-08-07T13:36:27.465Z,28.90
2022-08-07T13:39:12.782Z,28.80
2022-08-07T13:41:54.684Z,29.10
2022-08-07T13:44:34.608Z,29.30
2022-08-07T13:47:21.720Z,29.50
2022-08-07T13:50:32.720Z,29.70
2022-08-07T13:52:51.764Z,29.90
2022-08-07T13:55:26.675Z,30.10
2022-08-07T13:58:31.783Z,30.40
2022-08-07T14:01:11.148Z,30.50
2022-08-07T14:04:07.419Z,30.60
2022-08-07T14:06:43.855Z,30.80
2022-08-07T14:10:02.333Z,31.00
2022-08-07T14:12:30.841Z,30.90
2022-08-07T14:15:08.947Z,31.40
2022-08-07T14:18:24.284Z,30.90
2022-08-07T14:20:49.214Z,31.30
2022-08-07T14:23:59.551Z,31.40
2022-08-07T14:26:30.395Z,31.60
2022-08-07T14:30:07.940Z,31.90
2022-08-07T14:32:12.277Z,31.90
2022-08-07T14:34:47.257Z,32.20
2022-08-07T14:37:23.705Z,32.50
2022-08-07T14:40:16.664Z,32.40
2022-08-07T14:46:01.855Z,32.20
2022-08-07T14:48:37.163Z,32.50
2022-08-07T14:54:31.074Z,32.40
2022-08-07T14:56:59.445Z,32.70
2022-08-07T15:00:05.154Z,32.80
2022-08-07T15:05:25.821Z,31.80
2022-08-07T15:07:58.492Z,31.90
2022-08-07T15:10:30.614Z,31.50
2022-08-07T15:16:02.875Z,31.00
2022-08-07T15:21:58.944Z,30.40
2022-08-07T15:25:15.069Z,30.00
2022-08-07T15:27:29.082Z,29.90
2022-08-07T15:30:16.714Z,29.90
2022-08-07T15:33:01.648Z,29.60
2022-08-07T15:36:00.414Z,29.70
2022-08-07T15:38:51.866Z,29.70
2022-08-07T15:44:20.778Z,29.50
2022-08-07T15:47:03.606Z,29.50
2022-08-07T15:50:05.449Z,29.50
2022-08-07T15:52:34.323Z,29.50
2022-08-07T15:55:12.416Z,29.00
2022-08-07T15:57:49.073Z,28.50
2022-08-07T16:00:31.213Z,28.60
2022-08-07T16:03:20.503Z,28.00
2022-08-07T16:05:53.841Z,28.10
2022-08-07T16:08:37.898Z,28.10
2022-08-07T16:11:26.902Z,27.60
2022-08-07T16:14:17.139Z,27.70
2022-08-07T16:17:16.263Z,28.00
2022-08-07T16:20:34.630Z,28.10
2022-08-07T16:23:55.119Z,28.00
2022-08-07T16:26:59.385Z,27.80
2022-08-07T16:30:31.459Z,27.70
2022-08-07T16:34:02.931Z,27.80
2022-08-07T16:36:31.447Z,27.50
2022-08-07T16:39:33.655Z,27.50
2022-08-07T16:42:36.506Z,27.60
2022-08-07T16:46:40.692Z,27.40
2022-08-07T16:50:27.752Z,27.50
2022-08-07T16:52:52.348Z,27.50
2022-08-07T16:55:47.198Z,27.20
2022-08-07T16:59:02.437Z,27.00
2022-08-07T17:01:41.196Z,26.90
2022-08-07T17:04:25.871Z,26.90
2022-08-07T17:07:10.004Z,27.00
2022-08-07T17:10:05.295Z,27.00
2022-08-07T17:12:53.214Z,26.90
2022-08-07T17:15:44.437Z,27.10
2022-08-07T17:18:33.292Z,27.00
2022-08-07T17:21:18.896Z,27.00
2022-08-07T17:24:05.442Z,26.90
2022-08-07T17:26:53.298Z,26.80
2022-08-07T17:30:14.722Z,26.70
2022-08-07T17:32:57.516Z,26.60
2022-08-07T17:35:54.669Z,26.50
2022-08-07T17:38:35.198Z,26.50
2022-08-07T17:42:01.788Z,26.50
2022-08-07T17:44:41.398Z,26.60
2022-08-07T17:47:38.165Z,26.50
2022-08-07T17:50:42.293Z,26.50
2022-08-07T17:54:00.486Z,26.40
2022-08-07T17:56:42.136Z,26.40
2022-08-07T17:59:35.800Z,26.30
2022-08-07T18:02:16.668Z,26.20
2022-08-07T18:05:20.922Z,26.10
2022-08-07T18:08:16.363Z,26.10
2022-08-07T18:12:18.164Z,26.00
2022-08-07T18:14:02.527Z,25.90
2022-08-07T18:16:36.002Z,25.80
2022-08-07T18:21:11.032Z,25.80
2022-08-07T18:22:40.362Z,25.70
2022-08-07T18:25:40.410Z,25.60
2022-08-07T18:28:35.199Z,25.40
2022-08-07T18:31:18.774Z,25.20
2022-08-07T18:34:35.851Z,25.20
2022-08-07T18:38:59.368Z,25.10
2022-08-07T18:40:42.278Z,24.90
2022-08-07T18:43:48.907Z,24.90
2022-08-07T18:46:33.440Z,24.80
2022-08-07T18:50:31.693Z,24.70
2022-08-07T18:52:53.115Z,24.60
2022-08-07T18:55:42.021Z,24.40
2022-08-07T18:59:04.851Z,24.30
2022-08-07T19:02:31.968Z,24.30
2022-08-07T19:04:57.436Z,24.10
2022-08-07T19:07:51.888Z,24.10
2022-08-07T19:10:51.618Z,23.90
2022-08-07T19:13:37.218Z,23.80
2022-08-07T19:17:01.245Z,23.70
2022-08-07T19:19:33.826Z,23.60
2022-08-07T19:22:16.312Z,23.50
2022-08-07T19:24:48.643Z,23.40
2022-08-07T19:28:58.267Z,23.40
2022-08-07T19:31:00.549Z,23.30
2022-08-07T19:33:15.118Z,23.10
2022-08-07T19:35:53.458Z,23.00
2022-08-07T19:38:27.999Z,23.00
2022-08-07T19:41:01.842Z,23.00
2022-08-07T19:43:49.290Z,22.90
2022-08-07T19:46:30.636Z,22.80
2022-08-07T19:49:07.211Z,22.70
2022-08-07T19:51:52.611Z,22.60
2022-08-07T19:54:35.001Z,22.40
2022-08-07T19:58:00.142Z,22.50
2022-08-07T20:00:28.201Z,22.30
2022-08-07T20:03:05.048Z,22.20
2022-08-07T20:06:02.178Z,22.30
2022-08-07T20:08:35.015Z,22.20
2022-08-07T20:11:10.734Z,22.00
2022-08-07T20:13:48.445Z,22.00
2022-08-07T20:16:35.231Z,21.90
2022-08-07T20:19:10.358Z,21.80
2022-08-07T20:21:47.755Z,21.70
2022-08-07T20:24:23.496Z,21.70
2022-08-07T20:26:56.205Z,21.60
2022-08-07T20:29:49.574Z,21.60
2022-08-07T20:32:25.792Z,21.50
2022-08-07T20:35:01.382Z,21.40
2022-08-07T20:37:55.616Z,21.30
2022-08-07T20:40:34.310Z,21.30
2022-08-07T20:43:09.892Z,21.20
2022-08-07T20:46:28.340Z,21.20
2022-08-07T20:49:55.115Z,21.10
2022-08-07T20:51:40.565Z,21.10
2022-08-07T20:54:29.999Z,21.00
2022-08-07T20:57:08.345Z,21.00
2022-08-07T21:00:06.736Z,20.90
2022-08-07T21:02:57.534Z,20.90
2022-08-07T21:05:51.104Z,20.70
2022-08-07T21:08:36.786Z,20.70
2022-08-07T21:11:14.390Z,20.60
2022-08-07T21:14:31.731Z,20.60
2022-08-07T21:18:02.032Z,20.50
2022-08-07T21:20:05.263Z,20.40
2022-08-07T21:22:45.102Z,20.30
2022-08-07T21:25:38.889Z,20.20
2022-08-07T21:28:16.699Z,20.30
2022-08-07T21:30:58.055Z,20.20
2022-08-07T21:33:41.053Z,20.10
2022-08-07T21:36:31.068Z,20.10
2022-08-07T21:39:47.459Z,20.00
2022-08-07T21:42:42.651Z,20.00
2022-08-07T21:46:07.693Z,19.80
2022-08-07T21:48:28.301Z,19.90
2022-08-07T21:51:20.433Z,19.80
2022-08-07T21:54:09.393Z,19.60
2022-08-07T21:56:53.747Z,19.60
2022-08-07T22:00:05.186Z,19.60
2022-08-07T22:02:45.721Z,19.50
2022-08-07T22:05:44.658Z,19.40
2022-08-07T22:08:13.556Z,19.50
2022-08-07T22:10:49.745Z,19.40
2022-08-07T22:13:24.359Z,19.30
2022-08-07T22:16:43.355Z,19.30
2022-08-07T22:19:16.145Z,19.30
2022-08-07T22:22:04.748Z,19.20
2022-08-07T22:25:07.545Z,19.10
2022-08-07T22:28:08.054Z,19.00
2022-08-07T22:30:53.503Z,19.00
2022-08-07T22:33:53.073Z,18.90
2022-08-07T22:36:38.425Z,18.90
2022-08-07T22:39:23.468Z,18.70
2022-08-07T22:42:19.043Z,18.70
2022-08-07T22:45:03.486Z,18.70
2022-08-07T22:48:31.502Z,18.70
2022-08-07T22:51:44.583Z,18.70
2022-08-07T22:54:52.268Z,18.60
2022-08-07T22:58:05.812Z,18.50
2022-08-07T23:00:47.212Z,18.50
2022-08-07T23:03:58.802Z,18.50
2022-08-07T23:07:40.470Z,18.40
2022-08-07T23:10:37.405Z,18.30
2022-08-07T23:14:15.297Z,18.20
2022-08-07T23:17:15.617Z,18.20
2022-08-07T23:20:40.245Z,18.00
2022-08-07T23:24:16.971Z,17.90
2022-08-07T23:27:17.866Z,17.90
2022-08-07T23:30:38.008Z,17.90
2022-08-07T23:34:34.748Z,17.80
2022-08-07T23:36:43.105Z,17.80
2022-08-07T23:39:22.397Z,17.70
2022-08-07T23:42:15.668Z,17.80
2022-08-07T23:45:33.157Z,17.70
2022-08-07T23:48:43.398Z,17.60
2022-08-07T23:52:58.322Z,17.60
2022-08-07T23:54:36.005Z,17.60
2022-08-07T23:57:18.617Z,17.50
